createdAt,value
2018-05-27T00:00:05.554Z,98318.47
2018-05-27T00:00:37.195Z,98313.78
2018-05-27T00:01:08.778Z,98308.23
2018-05-27T00:01:40.377Z,98307.34
2018-05-27T00:02:11.981Z,98306.09
2018-05-27T00:02:43.570Z,98306.52
2018-05-27T00:03:15.182Z,98309.94
2018-05-27T00:03:46.791Z,98308.30
2018-05-27T00:04:18.401Z,98306.16
2018-05-27T00:04:50.018Z,98301.05
2018-05-27T00:05:21.634Z,98309.14
2018-05-27T00:05:53.248Z,98302.33
2018-05-27T00:06:24.849Z,98302.75
2018-05-27T00:06:56.430Z,98300.67
2018-05-27T00:07:28.004Z,98302.70
2018-05-27T00:07:59.597Z,98296.70
2018-05-27T00:08:31.196Z,98299.65
2018-05-27T00:09:02.786Z,98300.50
2018-05-27T00:09:34.366Z,98298.80
2018-05-27T00:10:05.950Z,98302.26
2018-05-27T00:10:37.604Z,98300.98
2018-05-27T00:11:09.200Z,98301.46
2018-05-27T00:11:40.797Z,98304.02
2018-05-27T00:12:12.392Z,98298.00
2018-05-27T00:12:43.975Z,98302.69
2018-05-27T00:13:15.554Z,98297.15
2018-05-27T00:13:47.134Z,98301.84
2018-05-27T00:14:18.743Z,98295.02
2018-05-27T00:14:50.326Z,98300.19
2018-05-27T00:15:21.960Z,98294.64
2018-05-27T00:15:53.551Z,98297.20
2018-05-27T00:16:25.154Z,98293.81
2018-05-27T00:16:56.749Z,98296.83
2018-05-27T00:17:28.354Z,98293.37
2018-05-27T00:17:59.961Z,98297.62
2018-05-27T00:18:31.560Z,98294.59
2018-05-27T00:19:03.152Z,98299.33
2018-05-27T00:19:34.767Z,98295.07
2018-05-27T00:20:06.345Z,98289.59
2018-05-27T00:20:37.990Z,98293.86
2018-05-27T00:21:09.560Z,98293.02
2018-05-27T00:21:41.150Z,98291.31
2018-05-27T00:22:12.740Z,98300.27
2018-05-27T00:22:44.320Z,98291.79
2018-05-27T00:23:15.923Z,98293.06
2018-05-27T00:23:47.534Z,98288.80
2018-05-27T00:24:19.128Z,98296.05
2018-05-27T00:24:50.743Z,98290.94
2018-05-27T00:25:22.378Z,98288.38
2018-05-27T00:25:53.972Z,98285.83
2018-05-27T00:26:25.563Z,98293.98
2018-05-27T00:26:57.137Z,98289.72
2018-05-27T00:27:28.729Z,98295.70
2018-05-27T00:28:00.314Z,98295.70
2018-05-27T00:28:31.908Z,98287.60
2018-05-27T00:29:03.498Z,98287.23
2018-05-27T00:29:35.094Z,98289.84
2018-05-27T00:30:06.747Z,98285.16
2018-05-27T00:30:38.330Z,98291.17
2018-05-27T00:31:09.901Z,98295.03
2018-05-27T00:31:41.476Z,98288.20
2018-05-27T00:32:13.068Z,98291.66
2018-05-27T00:32:44.668Z,98283.56
2018-05-27T00:33:16.280Z,98284.84
2018-05-27T00:33:47.871Z,98282.66
2018-05-27T00:34:19.478Z,98285.70
2018-05-27T00:34:51.063Z,98286.55
2018-05-27T00:35:22.644Z,98284.42
2018-05-27T00:35:54.265Z,98280.14
2018-05-27T00:36:25.846Z,98280.11
2018-05-27T00:36:57.547Z,98284.80
2018-05-27T00:37:29.161Z,98274.98
2018-05-27T00:38:00.760Z,98279.20
2018-05-27T00:38:32.396Z,98280.45
2018-05-27T00:39:03.977Z,98280.84
2018-05-27T00:39:35.562Z,98278.27
2018-05-27T00:40:07.170Z,98278.70
2018-05-27T00:40:38.753Z,98282.11
2018-05-27T00:41:10.344Z,98282.54
2018-05-27T00:41:41.930Z,98280.02
2018-05-27T00:42:13.534Z,98283.88
2018-05-27T00:42:45.165Z,98281.32
2018-05-27T00:43:16.737Z,98280.05
2018-05-27T00:43:48.342Z,98277.09
2018-05-27T00:44:19.929Z,98274.50
2018-05-27T00:44:51.533Z,98278.33
2018-05-27T00:45:23.127Z,98271.52
2018-05-27T00:45:54.700Z,98277.53
2018-05-27T00:46:26.306Z,98267.07
2018-05-27T00:46:57.914Z,98282.28
2018-05-27T00:47:29.484Z,98279.31
2018-05-27T00:48:01.136Z,98278.46
2018-05-27T00:48:32.732Z,98281.87
2018-05-27T00:49:04.318Z,98280.59
2018-05-27T00:49:35.930Z,98275.05
2018-05-27T00:50:07.520Z,98280.64
2018-05-27T00:50:39.102Z,98282.36
2018-05-27T00:51:10.682Z,98279.80
2018-05-27T00:51:42.286Z,98277.23
2018-05-27T00:52:13.874Z,98279.80
2018-05-27T00:52:45.455Z,98278.10
2018-05-27T00:53:17.089Z,98278.98
2018-05-27T00:53:48.691Z,98277.72
2018-05-27T00:54:20.302Z,98280.27
2018-05-27T00:54:51.885Z,98279.44
2018-05-27T00:55:23.495Z,98276.45
2018-05-27T00:55:55.097Z,98279.00
2018-05-27T00:56:26.681Z,98276.88
2018-05-27T00:56:58.262Z,98276.88
2018-05-27T00:57:29.828Z,98280.76
2018-05-27T00:58:01.405Z,98283.33
2018-05-27T00:58:33.061Z,98279.06
2018-05-27T00:59:04.633Z,98279.08
2018-05-27T00:59:36.225Z,98276.94
2018-05-27T01:00:07.830Z,98281.19
2018-05-27T01:00:39.427Z,98277.31
2018-05-27T01:01:11.036Z,98278.59
2018-05-27T01:01:42.641Z,98277.35
2018-05-27T01:02:14.223Z,98274.36
2018-05-27T01:02:45.796Z,98274.80
2018-05-27T01:03:17.376Z,98273.09
2018-05-27T01:03:48.998Z,98274.81
2018-05-27T01:04:20.565Z,98279.91
2018-05-27T01:04:52.156Z,98275.64
2018-05-27T01:05:23.752Z,98279.48
2018-05-27T01:05:55.334Z,98276.92
2018-05-27T01:06:26.909Z,98278.59
2018-05-27T01:06:58.530Z,98279.48
2018-05-27T01:07:30.120Z,98276.03
2018-05-27T01:08:01.730Z,98277.23
2018-05-27T01:08:33.340Z,98272.98
2018-05-27T01:09:04.913Z,98274.61
2018-05-27T01:09:36.557Z,98272.48
2018-05-27T01:10:08.136Z,98273.33
2018-05-27T01:10:39.714Z,98277.17
2018-05-27T01:11:11.280Z,98274.19
2018-05-27T01:11:42.882Z,98268.22
2018-05-27T01:12:14.470Z,98273.77
2018-05-27T01:12:46.119Z,98273.33
2018-05-27T01:13:17.726Z,98269.06
2018-05-27T01:13:49.321Z,98266.95
2018-05-27T01:14:20.910Z,98276.33
2018-05-27T01:14:52.505Z,98271.26
2018-05-27T01:15:24.177Z,98273.35
2018-05-27T01:15:55.776Z,98269.98
2018-05-27T01:16:27.372Z,98271.68
2018-05-27T01:16:58.968Z,98267.85
2018-05-27T01:17:30.573Z,98275.96
2018-05-27T01:18:02.187Z,98271.27
2018-05-27T01:18:33.778Z,98264.88
2018-05-27T01:19:05.357Z,98263.17
2018-05-27T01:19:36.966Z,98267.50
2018-05-27T01:20:08.582Z,98276.38
2018-05-27T01:20:40.152Z,98264.92
2018-05-27T01:21:11.753Z,98264.50
2018-05-27T01:21:43.324Z,98270.06
2018-05-27T01:22:14.930Z,98276.50
2018-05-27T01:22:46.504Z,98273.52
2018-05-27T01:23:18.087Z,98262.49
2018-05-27T01:23:49.674Z,98272.62
2018-05-27T01:24:21.287Z,98267.05
2018-05-27T01:24:52.886Z,98269.15
2018-05-27T01:25:24.503Z,98265.31
2018-05-27T01:25:56.082Z,98267.02
2018-05-27T01:26:27.712Z,98271.70
2018-05-27T01:26:59.309Z,98270.03
2018-05-27T01:27:30.909Z,98266.64
2018-05-27T01:28:02.480Z,98262.80
2018-05-27T01:28:34.094Z,98266.64
2018-05-27T01:29:05.705Z,98269.64
2018-05-27T01:29:37.314Z,98260.69
2018-05-27T01:30:08.922Z,98269.25
2018-05-27T01:30:40.549Z,98271.41
2018-05-27T01:31:12.149Z,98268.46
2018-05-27T01:31:43.734Z,98264.20
2018-05-27T01:32:15.353Z,98268.04
2018-05-27T01:32:46.954Z,98263.78
2018-05-27T01:33:18.542Z,98262.93
2018-05-27T01:33:50.162Z,98265.53
2018-05-27T01:34:21.749Z,98264.68
2018-05-27T01:34:53.353Z,98262.14
2018-05-27T01:35:24.963Z,98266.39
2018-05-27T01:35:56.574Z,98260.91
2018-05-27T01:36:28.190Z,98267.26
2018-05-27T01:36:59.850Z,98263.00
2018-05-27T01:37:31.514Z,98265.55
2018-05-27T01:38:03.098Z,98262.19
2018-05-27T01:38:34.687Z,98267.73
2018-05-27T01:39:06.285Z,98264.33
2018-05-27T01:39:37.874Z,98265.18
2018-05-27T01:40:09.458Z,98264.33
2018-05-27T01:40:41.052Z,98266.45
2018-05-27T01:41:12.638Z,98264.77
2018-05-27T01:41:44.237Z,98264.39
2018-05-27T01:42:15.817Z,98265.62
2018-05-27T01:42:47.593Z,98262.25
2018-05-27T01:43:19.176Z,98263.95
2018-05-27T01:43:50.754Z,98267.38
2018-05-27T01:44:22.363Z,98261.41
2018-05-27T01:44:53.946Z,98264.02
2018-05-27T01:45:25.540Z,98258.05
2018-05-27T01:45:57.117Z,98264.44
2018-05-27T01:46:28.702Z,98262.31
2018-05-27T01:47:00.283Z,98264.87
2018-05-27T01:47:31.872Z,98258.05
2018-05-27T01:48:03.484Z,98265.72
2018-05-27T01:48:35.066Z,98260.19
2018-05-27T01:49:06.723Z,98254.22
2018-05-27T01:49:38.305Z,98260.61
2018-05-27T01:50:09.896Z,98258.06
2018-05-27T01:50:41.503Z,98262.73
2018-05-27T01:51:13.138Z,98258.05
2018-05-27T01:51:44.742Z,98255.92
2018-05-27T01:52:16.350Z,98255.06
2018-05-27T01:52:47.938Z,98253.84
2018-05-27T01:53:19.546Z,98259.76
2018-05-27T01:53:51.141Z,98258.91
2018-05-27T01:54:22.732Z,98252.50
2018-05-27T01:54:54.362Z,98252.88
2018-05-27T01:55:25.940Z,98254.53
2018-05-27T01:55:57.574Z,98255.80
2018-05-27T01:56:29.158Z,98251.53
2018-05-27T01:57:00.762Z,98257.88
2018-05-27T01:57:32.340Z,98253.17
2018-05-27T01:58:03.945Z,98247.20
2018-05-27T01:58:35.558Z,98251.03
2018-05-27T01:59:07.146Z,98249.77
2018-05-27T01:59:38.716Z,98248.50
2018-05-27T02:00:10.284Z,98251.91
2018-05-27T02:00:41.867Z,98248.43
2018-05-27T02:01:13.490Z,98245.88
2018-05-27T02:01:45.070Z,98247.52
2018-05-27T02:02:16.654Z,98243.25
2018-05-27T02:02:48.234Z,98243.66
2018-05-27T02:03:19.814Z,98241.48
2018-05-27T02:03:51.394Z,98251.66
2018-05-27T02:04:22.982Z,98243.13
2018-05-27T02:04:54.566Z,98242.20
2018-05-27T02:05:26.132Z,98240.45
2018-05-27T02:05:57.728Z,98237.02
2018-05-27T02:06:29.358Z,98244.62
2018-05-27T02:07:00.942Z,98238.19
2018-05-27T02:07:32.535Z,98244.09
2018-05-27T02:08:04.109Z,98246.65
2018-05-27T02:08:35.713Z,98238.95
2018-05-27T02:09:07.290Z,98240.61
2018-05-27T02:09:38.889Z,98234.16
2018-05-27T02:10:10.502Z,98235.01
2018-05-27T02:10:42.090Z,98238.78
2018-05-27T02:11:13.716Z,98230.29
2018-05-27T02:11:45.342Z,98231.93
2018-05-27T02:12:16.946Z,98230.59
2018-05-27T02:12:48.558Z,98233.95
2018-05-27T02:13:20.161Z,98230.97
2018-05-27T02:13:51.743Z,98226.64
2018-05-27T02:14:23.330Z,98234.31
2018-05-27T02:14:54.900Z,98233.44
2018-05-27T02:15:26.475Z,98224.05
2018-05-27T02:15:58.069Z,98229.12
2018-05-27T02:16:29.698Z,98222.72
2018-05-27T02:17:01.282Z,98226.97
2018-05-27T02:17:32.861Z,98220.95
2018-05-27T02:18:04.466Z,98226.48
2018-05-27T02:18:36.078Z,98221.36
2018-05-27T02:19:07.689Z,98221.31
2018-05-27T02:19:39.279Z,98214.91
2018-05-27T02:20:10.947Z,98218.74
2018-05-27T02:20:42.531Z,98218.30
2018-05-27T02:21:14.172Z,98218.25
2018-05-27T02:21:45.812Z,98219.59
2018-05-27T02:22:17.398Z,98216.97
2018-05-27T02:22:48.977Z,98213.13
2018-05-27T02:23:20.577Z,98222.03
2018-05-27T02:23:52.273Z,98216.11
2018-05-27T02:24:23.867Z,98217.39
2018-05-27T02:24:55.470Z,98217.39
2018-05-27T02:25:27.078Z,98216.97
2018-05-27T02:25:58.662Z,98221.67
2018-05-27T02:26:30.236Z,98215.27
2018-05-27T02:27:01.814Z,98218.30
2018-05-27T02:27:33.394Z,98220.38
2018-05-27T02:28:04.999Z,98211.43
2018-05-27T02:28:36.592Z,98223.31
2018-05-27T02:29:08.178Z,98220.30
2018-05-27T02:29:39.760Z,98215.13
2018-05-27T02:30:11.346Z,98216.81
2018-05-27T02:30:42.917Z,98215.91
2018-05-27T02:31:14.489Z,98213.70
2018-05-27T02:31:46.060Z,98213.67
2018-05-27T02:32:17.634Z,98215.37
2018-05-27T02:32:49.278Z,98216.59
2018-05-27T02:33:20.852Z,98214.87
2018-05-27T02:33:52.449Z,98213.16
2018-05-27T02:34:24.055Z,98213.58
2018-05-27T02:34:55.645Z,98217.85
2018-05-27T02:35:27.226Z,98216.52
2018-05-27T02:35:58.807Z,98211.83
2018-05-27T02:36:30.418Z,98214.39
2018-05-27T02:37:02.056Z,98214.81
2018-05-27T02:37:33.668Z,98212.24
2018-05-27T02:38:05.244Z,98214.38
2018-05-27T02:38:36.894Z,98207.97
2018-05-27T02:39:08.496Z,98206.25
2018-05-27T02:39:40.085Z,98205.83
2018-05-27T02:40:11.676Z,98205.41
2018-05-27T02:40:43.249Z,98205.39
2018-05-27T02:41:14.827Z,98211.81
2018-05-27T02:41:46.410Z,98207.97
2018-05-27T02:42:18.018Z,98205.83
2018-05-27T02:42:49.606Z,98204.92
2018-05-27T02:43:21.219Z,98207.47
2018-05-27T02:43:52.950Z,98207.89
2018-05-27T02:44:24.534Z,98200.27
2018-05-27T02:44:56.111Z,98204.91
2018-05-27T02:45:27.726Z,98205.34
2018-05-27T02:45:59.300Z,98194.33
2018-05-27T02:46:30.904Z,98208.83
2018-05-27T02:47:02.490Z,98201.58
2018-05-27T02:47:34.093Z,98205.05
2018-05-27T02:48:05.672Z,98201.22
2018-05-27T02:48:37.257Z,98197.86
2018-05-27T02:49:08.869Z,98203.37
2018-05-27T02:49:40.460Z,98200.86
2018-05-27T02:50:12.050Z,98199.16
2018-05-27T02:50:43.649Z,98202.58
2018-05-27T02:51:15.221Z,98202.58
2018-05-27T02:51:46.826Z,98198.78
2018-05-27T02:52:18.434Z,98206.05
2018-05-27T02:52:50.041Z,98200.08
2018-05-27T02:53:21.650Z,98203.46
2018-05-27T02:53:53.334Z,98202.64
2018-05-27T02:54:25.025Z,98205.20
2018-05-27T02:54:56.620Z,98199.22
2018-05-27T02:55:28.225Z,98205.20
2018-05-27T02:55:59.839Z,98198.80
2018-05-27T02:56:31.436Z,98203.48
2018-05-27T02:57:03.022Z,98194.95
2018-05-27T02:57:34.626Z,98198.80
2018-05-27T02:58:06.229Z,98195.36
2018-05-27T02:58:37.812Z,98194.94
2018-05-27T02:59:09.385Z,98201.33
2018-05-27T02:59:40.966Z,98199.21
2018-05-27T03:00:12.566Z,98196.26
2018-05-27T03:00:44.161Z,98193.70
2018-05-27T03:01:15.766Z,98194.56
2018-05-27T03:01:47.352Z,98192.91
2018-05-27T03:02:18.961Z,98195.84
2018-05-27T03:02:50.571Z,98200.98
2018-05-27T03:03:22.166Z,98196.70
2018-05-27T03:03:53.776Z,98197.92
2018-05-27T03:04:25.455Z,98199.20
2018-05-27T03:04:57.078Z,98198.80
2018-05-27T03:05:28.665Z,98193.23
2018-05-27T03:06:00.271Z,98192.80
2018-05-27T03:06:31.853Z,98200.06
2018-05-27T03:07:03.438Z,98199.63
2018-05-27T03:07:35.041Z,98198.74
2018-05-27T03:08:06.655Z,98197.50
2018-05-27T03:08:38.243Z,98203.92
2018-05-27T03:09:09.829Z,98200.91
2018-05-27T03:09:41.434Z,98194.56
2018-05-27T03:10:13.066Z,98193.34
2018-05-27T03:10:44.660Z,98196.34
2018-05-27T03:11:16.261Z,98197.21
2018-05-27T03:11:47.855Z,98192.95
2018-05-27T03:12:19.432Z,98195.58
2018-05-27T03:12:51.037Z,98198.13
2018-05-27T03:13:22.626Z,98198.61
2018-05-27T03:13:54.201Z,98199.05
2018-05-27T03:14:25.808Z,98200.77
2018-05-27T03:14:57.568Z,98198.20
2018-05-27T03:15:29.160Z,98196.13
2018-05-27T03:16:00.760Z,98202.16
2018-05-27T03:16:32.346Z,98204.72
2018-05-27T03:17:03.994Z,98200.47
2018-05-27T03:17:35.624Z,98205.59
2018-05-27T03:18:07.202Z,98201.77
2018-05-27T03:18:38.810Z,98204.71
2018-05-27T03:19:10.422Z,98205.30
2018-05-27T03:19:42.001Z,98202.93
2018-05-27T03:20:13.596Z,98201.59
2018-05-27T03:20:45.192Z,98195.90
2018-05-27T03:21:16.788Z,98199.91
2018-05-27T03:21:48.370Z,98202.96
2018-05-27T03:22:19.941Z,98200.16
2018-05-27T03:22:51.576Z,98205.16
2018-05-27T03:23:23.148Z,98195.14
2018-05-27T03:23:54.742Z,98202.47
2018-05-27T03:24:26.337Z,98202.61
2018-05-27T03:24:57.942Z,98200.59
2018-05-27T03:25:29.524Z,98195.61
2018-05-27T03:26:01.106Z,98197.95
2018-05-27T03:26:32.711Z,98205.44
2018-05-27T03:27:04.316Z,98196.77
2018-05-27T03:27:35.934Z,98200.05
2018-05-27T03:28:07.552Z,98201.22
2018-05-27T03:28:39.121Z,98203.70
2018-05-27T03:29:10.713Z,98197.64
2018-05-27T03:29:42.327Z,98196.26
2018-05-27T03:30:13.934Z,98188.16
2018-05-27T03:30:45.522Z,98200.86
2018-05-27T03:31:17.132Z,98200.80
2018-05-27T03:31:48.721Z,98193.50
2018-05-27T03:32:20.288Z,98196.47
2018-05-27T03:32:51.943Z,98193.90
2018-05-27T03:33:23.574Z,98193.00
2018-05-27T03:33:55.141Z,98196.82
2018-05-27T03:34:26.741Z,98195.11
2018-05-27T03:34:58.330Z,98194.63
2018-05-27T03:35:29.934Z,98196.76
2018-05-27T03:36:01.508Z,98199.73
2018-05-27T03:36:33.090Z,98192.86
2018-05-27T03:37:04.694Z,98192.01
2018-05-27T03:37:36.306Z,98193.27
2018-05-27T03:38:07.914Z,98193.70
2018-05-27T03:38:39.562Z,98193.27
2018-05-27T03:39:11.165Z,98194.13
2018-05-27T03:39:42.751Z,98195.83
2018-05-27T03:40:14.331Z,98190.66
2018-05-27T03:40:45.909Z,98192.79
2018-05-27T03:41:17.508Z,98191.08
2018-05-27T03:41:49.118Z,98192.36
2018-05-27T03:42:20.721Z,98196.63
2018-05-27T03:42:52.310Z,98194.05
2018-05-27T03:43:23.953Z,98188.53
2018-05-27T03:43:55.557Z,98194.00
2018-05-27T03:44:27.152Z,98191.00
2018-05-27T03:44:58.798Z,98202.03
2018-05-27T03:45:30.386Z,98198.17
2018-05-27T03:46:01.959Z,98190.45
2018-05-27T03:46:33.555Z,98196.00
2018-05-27T03:47:05.185Z,98196.42
2018-05-27T03:47:36.766Z,98192.17
2018-05-27T03:48:08.374Z,98195.56
2018-05-27T03:48:39.986Z,98195.55
2018-05-27T03:49:11.602Z,98201.95
2018-05-27T03:49:43.234Z,98200.23
2018-05-27T03:50:14.819Z,98196.39
2018-05-27T03:50:46.430Z,98195.12
2018-05-27T03:51:18.014Z,98199.34
2018-05-27T03:51:49.621Z,98198.05
2018-05-27T03:52:21.233Z,98198.91
2018-05-27T03:52:52.818Z,98204.03
2018-05-27T03:53:24.385Z,98203.59
2018-05-27T03:53:55.977Z,98202.32
2018-05-27T03:54:27.622Z,98202.37
2018-05-27T03:54:59.210Z,98201.46
2018-05-27T03:55:30.853Z,98206.16
2018-05-27T03:56:02.501Z,98210.84
2018-05-27T03:56:34.109Z,98203.59
2018-05-27T03:57:05.692Z,98207.43
2018-05-27T03:57:37.270Z,98206.16
2018-05-27T03:58:08.877Z,98209.99
2018-05-27T03:58:40.461Z,98209.99
2018-05-27T03:59:12.074Z,98209.99
2018-05-27T03:59:43.658Z,98211.27
2018-05-27T04:00:15.296Z,98209.99
2018-05-27T04:00:46.878Z,98208.29
2018-05-27T04:01:18.454Z,98214.68
2018-05-27T04:01:50.042Z,98210.84
2018-05-27T04:02:21.636Z,98215.10
2018-05-27T04:02:53.236Z,98214.64
2018-05-27T04:03:24.845Z,98214.62
2018-05-27T04:03:56.451Z,98214.19
2018-05-27T04:04:28.057Z,98213.34
2018-05-27T04:04:59.708Z,98208.23
2018-05-27T04:05:31.330Z,98214.19
2018-05-27T04:06:02.948Z,98217.13
2018-05-27T04:06:34.524Z,98216.27
2018-05-27T04:07:06.142Z,98215.85
2018-05-27T04:07:37.734Z,98214.98
2018-05-27T04:08:09.342Z,98218.84
2018-05-27T04:08:40.950Z,98211.17
2018-05-27T04:09:12.559Z,98216.71
2018-05-27T04:09:44.150Z,98216.28
2018-05-27T04:10:15.765Z,98217.95
2018-05-27T04:10:47.393Z,98217.57
2018-05-27T04:11:18.997Z,98218.41
2018-05-27T04:11:50.606Z,98212.44
2018-05-27T04:12:22.210Z,98219.66
2018-05-27T04:12:53.805Z,98213.67
2018-05-27T04:13:25.418Z,98213.70
2018-05-27T04:13:57.013Z,98215.38
2018-05-27T04:14:28.598Z,98216.22
2018-05-27T04:15:00.187Z,98213.23
2018-05-27T04:15:31.774Z,98212.38
2018-05-27T04:16:03.344Z,98215.31
2018-05-27T04:16:34.936Z,98202.98
2018-05-27T04:17:06.509Z,98215.72
2018-05-27T04:17:38.089Z,98215.72
2018-05-27T04:18:09.681Z,98215.67
2018-05-27T04:18:41.266Z,98215.67
2018-05-27T04:19:12.872Z,98216.09
2018-05-27T04:19:44.481Z,98213.95
2018-05-27T04:20:16.066Z,98219.09
2018-05-27T04:20:47.678Z,98212.23
2018-05-27T04:21:19.326Z,98213.08
2018-05-27T04:21:50.910Z,98213.02
2018-05-27T04:22:22.495Z,98213.02
2018-05-27T04:22:54.078Z,98210.90
2018-05-27T04:23:25.681Z,98211.31
2018-05-27T04:23:57.267Z,98212.16
2018-05-27T04:24:28.854Z,98214.67
2018-05-27T04:25:00.474Z,98212.95
2018-05-27T04:25:32.064Z,98212.95
2018-05-27T04:26:03.666Z,98214.65
2018-05-27T04:26:35.236Z,98211.23
2018-05-27T04:27:06.906Z,98205.27
2018-05-27T04:27:38.494Z,98204.41
2018-05-27T04:28:10.073Z,98207.77
2018-05-27T04:28:41.696Z,98208.19
2018-05-27T04:29:13.276Z,98206.48
2018-05-27T04:29:44.858Z,98202.20
2018-05-27T04:30:16.445Z,98202.63
2018-05-27T04:30:48.035Z,98202.19
2018-05-27T04:31:19.632Z,98203.84
2018-05-27T04:31:51.227Z,98202.14
2018-05-27T04:32:22.844Z,98208.53
2018-05-27T04:32:54.422Z,98202.08
2018-05-27T04:33:26.003Z,98202.49
2018-05-27T04:33:57.650Z,98199.93
2018-05-27T04:34:29.234Z,98200.34
2018-05-27T04:35:00.828Z,98199.51
2018-05-27T04:35:32.429Z,98204.13
2018-05-27T04:36:04.011Z,98203.70
2018-05-27T04:36:35.650Z,98203.27
2018-05-27T04:37:07.253Z,98198.92
2018-05-27T04:37:38.898Z,98201.05
2018-05-27T04:38:10.506Z,98203.56
2018-05-27T04:38:42.090Z,98200.51
2018-05-27T04:39:13.697Z,98198.77
2018-05-27T04:39:45.310Z,98206.41
2018-05-27T04:40:16.922Z,98204.23
2018-05-27T04:40:48.532Z,98207.16
2018-05-27T04:41:20.144Z,98201.61
2018-05-27T04:41:51.729Z,98202.04
2018-05-27T04:42:23.301Z,98202.91
2018-05-27T04:42:54.930Z,98199.92
2018-05-27T04:43:26.521Z,98202.48
2018-05-27T04:43:58.125Z,98200.75
2018-05-27T04:44:29.730Z,98205.38
2018-05-27T04:45:01.305Z,98204.45
2018-05-27T04:45:32.886Z,98203.47
2018-05-27T04:46:04.470Z,98198.66
2018-05-27T04:46:36.045Z,98205.35
2018-05-27T04:47:07.622Z,98200.93
2018-05-27T04:47:39.205Z,98206.33
2018-05-27T04:48:10.784Z,98204.45
2018-05-27T04:48:42.385Z,98201.72
2018-05-27T04:49:13.990Z,98202.41
2018-05-27T04:49:45.570Z,98204.80
2018-05-27T04:50:17.185Z,98209.83
2018-05-27T04:50:48.794Z,98209.33
2018-05-27T04:51:20.368Z,98212.76
2018-05-27T04:51:51.970Z,98209.33
2018-05-27T04:52:23.554Z,98210.25
2018-05-27T04:52:55.133Z,98210.34
2018-05-27T04:53:26.700Z,98207.08
2018-05-27T04:53:58.282Z,98207.54
2018-05-27T04:54:29.890Z,98208.09
2018-05-27T04:55:01.488Z,98210.30
2018-05-27T04:55:33.098Z,98207.34
2018-05-27T04:56:04.710Z,98210.41
2018-05-27T04:56:36.294Z,98208.73
2018-05-27T04:57:07.897Z,98213.89
2018-05-27T04:57:39.481Z,98209.75
2018-05-27T04:58:11.070Z,98214.44
2018-05-27T04:58:42.640Z,98211.95
2018-05-27T04:59:14.232Z,98215.44
2018-05-27T04:59:45.842Z,98217.65
2018-05-27T05:00:17.465Z,98222.80
2018-05-27T05:00:49.046Z,98213.90
2018-05-27T05:01:20.640Z,98216.04
2018-05-27T05:01:52.258Z,98216.11
2018-05-27T05:02:23.845Z,98216.19
2018-05-27T05:02:55.469Z,98223.09
2018-05-27T05:03:27.059Z,98216.70
2018-05-27T05:03:58.638Z,98220.97
2018-05-27T05:04:30.215Z,98223.11
2018-05-27T05:05:01.789Z,98218.96
2018-05-27T05:05:33.371Z,98223.61
2018-05-27T05:06:04.974Z,98223.18
2018-05-27T05:06:36.602Z,98225.75
2018-05-27T05:07:08.176Z,98221.95
2018-05-27T05:07:39.744Z,98225.80
2018-05-27T05:08:11.346Z,98227.54
2018-05-27T05:08:43.396Z,98219.47
2018-05-27T05:09:15.006Z,98222.91
2018-05-27T05:09:46.620Z,98222.91
2018-05-27T05:10:18.212Z,98221.19
2018-05-27T05:10:49.808Z,98219.92
2018-05-27T05:11:21.446Z,98216.13
2018-05-27T05:11:53.084Z,98220.84
2018-05-27T05:12:24.690Z,98222.12
2018-05-27T05:12:56.278Z,98219.19
2018-05-27T05:13:27.882Z,98220.47
2018-05-27T05:13:59.465Z,98221.33
2018-05-27T05:14:31.037Z,98226.03
2018-05-27T05:15:02.641Z,98224.76
2018-05-27T05:15:34.236Z,98222.20
2018-05-27T05:16:05.828Z,98220.55
2018-05-27T05:16:37.454Z,98225.26
2018-05-27T05:17:09.073Z,98223.13
2018-05-27T05:17:40.678Z,98224.05
2018-05-27T05:18:12.288Z,98226.18
2018-05-27T05:18:43.898Z,98228.33
2018-05-27T05:19:15.476Z,98225.83
2018-05-27T05:19:47.082Z,98230.89
2018-05-27T05:20:18.668Z,98231.31
2018-05-27T05:20:50.244Z,98232.64
2018-05-27T05:21:21.826Z,98230.11
2018-05-27T05:21:53.414Z,98234.73
2018-05-27T05:22:25.047Z,98229.22
2018-05-27T05:22:56.644Z,98229.66
2018-05-27T05:23:28.294Z,98236.06
2018-05-27T05:23:59.883Z,98230.95
2018-05-27T05:24:31.465Z,98234.34
2018-05-27T05:25:03.050Z,98229.22
2018-05-27T05:25:34.629Z,98230.03
2018-05-27T05:26:06.211Z,98234.34
2018-05-27T05:26:37.818Z,98233.88
2018-05-27T05:27:09.407Z,98228.80
2018-05-27T05:27:40.980Z,98218.73
2018-05-27T05:28:12.581Z,98232.64
2018-05-27T05:28:44.228Z,98230.52
2018-05-27T05:29:15.804Z,98227.95
2018-05-27T05:29:47.373Z,98235.64
2018-05-27T05:30:18.954Z,98239.48
2018-05-27T05:30:50.562Z,98236.08
2018-05-27T05:31:22.145Z,98234.36
2018-05-27T05:31:53.746Z,98229.67
2018-05-27T05:32:25.333Z,98226.27
2018-05-27T05:32:56.938Z,98221.62
2018-05-27T05:33:28.509Z,98225.84
2018-05-27T05:34:00.145Z,98227.12
2018-05-27T05:34:31.735Z,98230.96
2018-05-27T05:35:03.318Z,98229.22
2018-05-27T05:35:34.902Z,98230.02
2018-05-27T05:36:06.472Z,98229.97
2018-05-27T05:36:38.074Z,98228.67
2018-05-27T05:37:09.648Z,98232.95
2018-05-27T05:37:41.285Z,98232.08
2018-05-27T05:38:12.869Z,98229.08
2018-05-27T05:38:44.440Z,98233.73
2018-05-27T05:39:16.027Z,98235.02
2018-05-27T05:39:47.629Z,98236.27
2018-05-27T05:40:19.218Z,98233.64
2018-05-27T05:40:50.821Z,98224.66
2018-05-27T05:41:22.392Z,98235.23
2018-05-27T05:41:53.993Z,98235.64
2018-05-27T05:42:25.630Z,98235.65
2018-05-27T05:42:57.210Z,98232.63
2018-05-27T05:43:28.810Z,98232.16
2018-05-27T05:44:00.401Z,98238.56
2018-05-27T05:44:32.033Z,98235.57
2018-05-27T05:45:03.682Z,98234.72
2018-05-27T05:45:35.257Z,98231.77
2018-05-27T05:46:06.829Z,98232.59
2018-05-27T05:46:38.420Z,98233.51
2018-05-27T05:47:10.010Z,98237.28
2018-05-27T05:47:41.613Z,98233.48
2018-05-27T05:48:13.202Z,98230.48
2018-05-27T05:48:44.781Z,98228.36
2018-05-27T05:49:16.444Z,98230.50
2018-05-27T05:49:48.040Z,98233.05
2018-05-27T05:50:19.679Z,98231.73
2018-05-27T05:50:51.290Z,98230.48
2018-05-27T05:51:22.874Z,98233.48
2018-05-27T05:51:54.458Z,98230.88
2018-05-27T05:52:26.065Z,98233.06
2018-05-27T05:52:57.636Z,98231.30
2018-05-27T05:53:29.213Z,98234.29
2018-05-27T05:54:00.825Z,98237.71
2018-05-27T05:54:32.411Z,98237.70
2018-05-27T05:55:03.980Z,98233.86
2018-05-27T05:55:35.630Z,98232.58
2018-05-27T05:56:07.214Z,98232.56
2018-05-27T05:56:38.798Z,98238.11
2018-05-27T05:57:10.402Z,98232.14
2018-05-27T05:57:41.989Z,98235.56
2018-05-27T05:58:13.589Z,98233.42
2018-05-27T05:58:45.168Z,98234.28
2018-05-27T05:59:16.774Z,98235.55
2018-05-27T05:59:48.384Z,98230.45
2018-05-27T06:00:20.040Z,98235.55
2018-05-27T06:00:51.645Z,98234.64
2018-05-27T06:01:23.249Z,98234.21
2018-05-27T06:01:54.851Z,98238.48
2018-05-27T06:02:26.434Z,98230.44
2018-05-27T06:02:58.005Z,98231.28
2018-05-27T06:03:29.576Z,98233.84
2018-05-27T06:04:01.178Z,98238.11
2018-05-27T06:04:32.777Z,98239.77
2018-05-27T06:05:04.348Z,98236.77
2018-05-27T06:05:35.980Z,98239.77
2018-05-27T06:06:07.558Z,98238.98
2018-05-27T06:06:39.143Z,98240.20
2018-05-27T06:07:10.730Z,98242.77
2018-05-27T06:07:42.359Z,98238.05
2018-05-27T06:08:13.932Z,98244.03
2018-05-27T06:08:45.518Z,98236.83
2018-05-27T06:09:17.098Z,98239.39
2018-05-27T06:09:48.706Z,98240.20
2018-05-27T06:10:20.314Z,98240.67
2018-05-27T06:10:52.180Z,98238.84